sensor_id;sensor_type;location;lat;lon;timestamp;P1;durP1;ratioP1;P2;durP2;ratioP2
78169;SDS011;67412;49.892;14.490;2023-04-07T00:00:16;19.85;;;7.43;;
78169;SDS011;67412;49.892;14.490;2023-04-07T00:02:42;18.88;;;6.78;;
78169;SDS011;67412;49.892;14.490;2023-04-07T00:05:08;18.10;;;6.68;;
78169;SDS011;67412;49.892;14.490;2023-04-07T00:07:33;18.08;;;6.82;;
78169;SDS011;67412;49.892;14.490;2023-04-07T00:09:58;17.57;;;6.93;;
78169;SDS011;67412;49.892;14.490;2023-04-07T00:12:24;18.77;;;7.47;;
78169;SDS011;67412;49.892;14.490;2023-04-07T00:14:49;18.05;;;7.40;;
78169;SDS011;67412;49.892;14.490;2023-04-07T00:17:14;21.85;;;8.43;;
78169;SDS011;67412;49.892;14.490;2023-04-07T00:19:40;18.48;;;6.30;;
78169;SDS011;67412;49.892;14.490;2023-04-07T00:22:05;18.30;;;6.68;;
78169;SDS011;67412;49.892;14.490;2023-04-07T00:24:30;19.67;;;7.10;;
78169;SDS011;67412;49.892;14.490;2023-04-07T00:26:56;21.85;;;6.82;;
78169;SDS011;67412;49.892;14.490;2023-04-07T00:29:21;15.38;;;6.65;;
78169;SDS011;67412;49.892;14.490;2023-04-07T00:31:47;18.13;;;7.03;;
78169;SDS011;67412;49.892;14.490;2023-04-07T00:34:12;17.95;;;7.40;;
78169;SDS011;67412;49.892;14.490;2023-04-07T00:36:37;17.30;;;7.53;;
78169;SDS011;67412;49.892;14.490;2023-04-07T00:39:03;18.05;;;6.90;;
78169;SDS011;67412;49.892;14.490;2023-04-07T00:41:28;16.55;;;7.28;;
78169;SDS011;67412;49.892;14.490;2023-04-07T00:43:53;17.90;;;6.57;;
78169;SDS011;67412;49.892;14.490;2023-04-07T00:46:19;17.67;;;7.22;;
78169;SDS011;67412;49.892;14.490;2023-04-07T00:48:47;19.25;;;7.22;;
78169;SDS011;67412;49.892;14.490;2023-04-07T00:51:13;18.27;;;7.20;;
78169;SDS011;67412;49.892;14.490;2023-04-07T00:53:39;15.48;;;6.55;;
78169;SDS011;67412;49.892;14.490;2023-04-07T00:56:04;19.88;;;8.27;;
78169;SDS011;67412;49.892;14.490;2023-04-07T00:58:30;19.40;;;6.78;;
78169;SDS011;67412;49.892;14.490;2023-04-07T01:03:56;17.67;;;6.13;;
78169;SDS011;67412;49.892;14.490;2023-04-07T01:06:27;16.83;;;6.93;;
78169;SDS011;67412;49.892;14.490;2023-04-07T01:14:06;20.23;;;7.55;;
78169;SDS011;67412;49.892;14.490;2023-04-07T01:16:45;16.80;;;6.50;;
78169;SDS011;67412;49.892;14.490;2023-04-07T01:21:48;17.20;;;6.75;;
78169;SDS011;67412;49.892;14.490;2023-04-07T01:27:14;18.27;;;7.60;;
78169;SDS011;67412;49.892;14.490;2023-04-07T01:29:45;17.75;;;6.78;;
78169;SDS011;67412;49.892;14.490;2023-04-07T01:32:14;17.90;;;6.72;;
78169;SDS011;67412;49.892;14.490;2023-04-07T01:34:42;18.02;;;6.72;;
78169;SDS011;67412;49.892;14.490;2023-04-07T01:37:09;18.58;;;6.85;;
78169;SDS011;67412;49.892;14.490;2023-04-07T01:39:35;15.43;;;7.47;;
78169;SDS011;67412;49.892;14.490;2023-04-07T01:42:02;16.80;;;6.75;;
78169;SDS011;67412;49.892;14.490;2023-04-07T01:44:31;17.75;;;6.30;;
78169;SDS011;67412;49.892;14.490;2023-04-07T01:46:57;17.48;;;7.47;;
78169;SDS011;67412;49.892;14.490;2023-04-07T01:49:24;17.27;;;7.18;;
78169;SDS011;67412;49.892;14.490;2023-04-07T01:51:51;18.20;;;7.30;;
78169;SDS011;67412;49.892;14.490;2023-04-07T01:54:17;22.95;;;7.80;;
78169;SDS011;67412;49.892;14.490;2023-04-07T01:56:44;17.83;;;6.68;;
78169;SDS011;67412;49.892;14.490;2023-04-07T01:59:10;18.55;;;7.03;;
78169;SDS011;67412;49.892;14.490;2023-04-07T02:01:35;19.73;;;7.00;;
78169;SDS011;67412;49.892;14.490;2023-04-07T02:04:04;20.73;;;7.40;;
78169;SDS011;67412;49.892;14.490;2023-04-07T02:06:53;14.40;;;6.72;;
78169;SDS011;67412;49.892;14.490;2023-04-07T02:09:23;18.60;;;7.55;;
78169;SDS011;67412;49.892;14.490;2023-04-07T02:11:53;17.70;;;7.18;;
78169;SDS011;67412;49.892;14.490;2023-04-07T02:14:21;19.20;;;7.20;;
78169;SDS011;67412;49.892;14.490;2023-04-07T02:16:48;16.95;;;7.03;;
78169;SDS011;67412;49.892;14.490;2023-04-07T02:19:15;17.58;;;6.78;;
78169;SDS011;67412;49.892;14.490;2023-04-07T02:21:41;19.67;;;8.15;;
78169;SDS011;67412;49.892;14.490;2023-04-07T02:24:09;17.08;;;6.90;;
78169;SDS011;67412;49.892;14.490;2023-04-07T02:26:35;17.63;;;7.45;;
78169;SDS011;67412;49.892;14.490;2023-04-07T02:29:01;15.05;;;6.63;;
78169;SDS011;67412;49.892;14.490;2023-04-07T02:31:27;18.00;;;7.65;;
78169;SDS011;67412;49.892;14.490;2023-04-07T02:33:52;16.70;;;7.32;;
78169;SDS011;67412;49.892;14.490;2023-04-07T02:36:18;16.92;;;7.45;;
78169;SDS011;67412;49.892;14.490;2023-04-07T02:38:43;17.17;;;7.68;;
78169;SDS011;67412;49.892;14.490;2023-04-07T02:41:08;15.93;;;7.00;;
78169;SDS011;67412;49.892;14.490;2023-04-07T02:43:34;20.63;;;7.28;;
78169;SDS011;67412;49.892;14.490;2023-04-07T02:45:59;17.27;;;7.35;;
78169;SDS011;67412;49.892;14.490;2023-04-07T02:48:24;19.45;;;8.52;;
78169;SDS011;67412;49.892;14.490;2023-04-07T02:50:50;15.20;;;7.07;;
78169;SDS011;67412;49.892;14.490;2023-04-07T02:53:15;17.75;;;7.18;;
78169;SDS011;67412;49.892;14.490;2023-04-07T02:55:40;18.23;;;7.97;;
78169;SDS011;67412;49.892;14.490;2023-04-07T02:58:06;18.23;;;7.70;;
78169;SDS011;67412;49.892;14.490;2023-04-07T03:00:32;14.52;;;6.85;;
78169;SDS011;67412;49.892;14.490;2023-04-07T03:02:57;19.08;;;8.13;;
78169;SDS011;67412;49.892;14.490;2023-04-07T03:05:23;18.23;;;7.70;;
78169;SDS011;67412;49.892;14.490;2023-04-07T03:07:48;17.58;;;7.85;;
78169;SDS011;67412;49.892;14.490;2023-04-07T03:10:13;19.10;;;7.47;;
78169;SDS011;67412;49.892;14.490;2023-04-07T03:12:39;21.55;;;8.18;;
78169;SDS011;67412;49.892;14.490;2023-04-07T03:15:05;18.30;;;7.60;;
78169;SDS011;67412;49.892;14.490;2023-04-07T03:17:32;17.20;;;7.47;;
78169;SDS011;67412;49.892;14.490;2023-04-07T03:19:57;18.10;;;8.07;;
78169;SDS011;67412;49.892;14.490;2023-04-07T03:22:22;20.40;;;8.45;;
78169;SDS011;67412;49.892;14.490;2023-04-07T03:24:48;21.10;;;8.80;;
78169;SDS011;67412;49.892;14.490;2023-04-07T03:27:13;22.73;;;9.25;;
78169;SDS011;67412;49.892;14.490;2023-04-07T03:29:38;17.25;;;8.02;;
78169;SDS011;67412;49.892;14.490;2023-04-07T03:32:04;22.60;;;10.23;;
78169;SDS011;67412;49.892;14.490;2023-04-07T03:34:29;19.88;;;8.35;;
78169;SDS011;67412;49.892;14.490;2023-04-07T03:36:55;19.88;;;8.18;;
78169;SDS011;67412;49.892;14.490;2023-04-07T03:39:20;21.05;;;8.73;;
78169;SDS011;67412;49.892;14.490;2023-04-07T03:41:45;19.75;;;7.78;;
78169;SDS011;67412;49.892;14.490;2023-04-07T03:44:10;20.52;;;8.32;;
78169;SDS011;67412;49.892;14.490;2023-04-07T03:46:36;23.92;;;8.60;;
78169;SDS011;67412;49.892;14.490;2023-04-07T03:49:02;18.38;;;7.95;;
78169;SDS011;67412;49.892;14.490;2023-04-07T03:51:27;17.65;;;8.50;;
78169;SDS011;67412;49.892;14.490;2023-04-07T03:53:52;21.05;;;8.20;;
78169;SDS011;67412;49.892;14.490;2023-04-07T03:56:18;20.17;;;7.70;;
78169;SDS011;67412;49.892;14.490;2023-04-07T03:58:43;21.23;;;8.32;;
78169;SDS011;67412;49.892;14.490;2023-04-07T04:01:10;22.98;;;8.90;;
78169;SDS011;67412;49.892;14.490;2023-04-07T04:03:36;19.88;;;7.40;;
78169;SDS011;67412;49.892;14.490;2023-04-07T04:06:01;21.27;;;9.10;;
78169;SDS011;67412;49.892;14.490;2023-04-07T04:08:27;16.83;;;8.23;;
78169;SDS011;67412;49.892;14.490;2023-04-07T04:10:53;19.85;;;8.35;;
78169;SDS011;67412;49.892;14.490;2023-04-07T04:13:18;20.85;;;9.00;;
78169;SDS011;67412;49.892;14.490;2023-04-07T04:15:44;17.95;;;7.93;;
78169;SDS011;67412;49.892;14.490;2023-04-07T04:18:09;21.92;;;8.63;;
78169;SDS011;67412;49.892;14.490;2023-04-07T04:20:34;20.75;;;8.25;;
78169;SDS011;67412;49.892;14.490;2023-04-07T04:23:01;23.30;;;8.65;;
78169;SDS011;67412;49.892;14.490;2023-04-07T04:25:26;20.67;;;8.98;;
78169;SDS011;67412;49.892;14.490;2023-04-07T04:27:51;20.63;;;8.73;;
78169;SDS011;67412;49.892;14.490;2023-04-07T04:30:17;20.90;;;8.30;;
78169;SDS011;67412;49.892;14.490;2023-04-07T04:32:42;19.52;;;8.40;;
78169;SDS011;67412;49.892;14.490;2023-04-07T04:35:08;19.13;;;8.90;;
78169;SDS011;67412;49.892;14.490;2023-04-07T04:37:33;18.40;;;8.75;;
78169;SDS011;67412;49.892;14.490;2023-04-07T04:39:59;19.17;;;8.38;;
78169;SDS011;67412;49.892;14.490;2023-04-07T04:42:25;15.55;;;7.97;;
78169;SDS011;67412;49.892;14.490;2023-04-07T04:44:51;27.40;;;8.93;;
78169;SDS011;67412;49.892;14.490;2023-04-07T04:47:17;18.38;;;7.95;;
78169;SDS011;67412;49.892;14.490;2023-04-07T04:49:42;25.55;;;9.75;;
78169;SDS011;67412;49.892;14.490;2023-04-07T04:52:08;23.98;;;10.32;;
78169;SDS011;67412;49.892;14.490;2023-04-07T04:54:33;20.63;;;9.65;;
78169;SDS011;67412;49.892;14.490;2023-04-07T04:56:58;23.13;;;9.27;;
78169;SDS011;67412;49.892;14.490;2023-04-07T04:59:25;22.92;;;9.43;;
78169;SDS011;67412;49.892;14.490;2023-04-07T05:01:51;23.83;;;9.55;;
78169;SDS011;67412;49.892;14.490;2023-04-07T05:04:16;20.27;;;8.23;;
78169;SDS011;67412;49.892;14.490;2023-04-07T05:06:41;17.05;;;8.45;;
78169;SDS011;67412;49.892;14.490;2023-04-07T05:09:08;21.27;;;9.18;;
78169;SDS011;67412;49.892;14.490;2023-04-07T05:11:33;19.58;;;8.93;;
78169;SDS011;67412;49.892;14.490;2023-04-07T05:13:58;22.17;;;10.07;;
78169;SDS011;67412;49.892;14.490;2023-04-07T05:16:24;20.92;;;9.80;;
78169;SDS011;67412;49.892;14.490;2023-04-07T05:18:50;21.85;;;8.90;;
78169;SDS011;67412;49.892;14.490;2023-04-07T05:21:15;21.30;;;9.00;;
78169;SDS011;67412;49.892;14.490;2023-04-07T05:23:41;21.02;;;8.68;;
78169;SDS011;67412;49.892;14.490;2023-04-07T05:26:06;20.55;;;9.13;;
78169;SDS011;67412;49.892;14.490;2023-04-07T05:28:31;23.05;;;9.45;;
78169;SDS011;67412;49.892;14.490;2023-04-07T05:30:56;19.10;;;9.13;;
78169;SDS011;67412;49.892;14.490;2023-04-07T05:33:22;20.05;;;9.18;;
78169;SDS011;67412;49.892;14.490;2023-04-07T05:35:47;22.70;;;9.77;;
78169;SDS011;67412;49.892;14.490;2023-04-07T05:38:13;18.63;;;9.40;;
78169;SDS011;67412;49.892;14.490;2023-04-07T05:40:38;21.02;;;9.20;;
78169;SDS011;67412;49.892;14.490;2023-04-07T05:43:04;22.70;;;9.40;;
78169;SDS011;67412;49.892;14.490;2023-04-07T05:45:29;21.60;;;9.43;;
78169;SDS011;67412;49.892;14.490;2023-04-07T05:47:55;19.98;;;9.55;;
78169;SDS011;67412;49.892;14.490;2023-04-07T05:50:20;22.02;;;10.20;;
78169;SDS011;67412;49.892;14.490;2023-04-07T05:52:45;23.42;;;10.75;;
78169;SDS011;67412;49.892;14.490;2023-04-07T05:55:11;23.98;;;10.55;;
78169;SDS011;67412;49.892;14.490;2023-04-07T05:57:36;22.10;;;9.20;;
78169;SDS011;67412;49.892;14.490;2023-04-07T06:00:02;24.45;;;9.70;;
78169;SDS011;67412;49.892;14.490;2023-04-07T06:02:28;22.60;;;10.15;;
78169;SDS011;67412;49.892;14.490;2023-04-07T06:04:54;23.48;;;10.05;;
78169;SDS011;67412;49.892;14.490;2023-04-07T06:07:20;19.42;;;10.13;;
78169;SDS011;67412;49.892;14.490;2023-04-07T06:09:45;24.40;;;10.43;;
78169;SDS011;67412;49.892;14.490;2023-04-07T06:12:10;24.65;;;11.35;;
78169;SDS011;67412;49.892;14.490;2023-04-07T06:14:36;32.30;;;12.02;;
78169;SDS011;67412;49.892;14.490;2023-04-07T06:17:02;28.10;;;11.38;;
78169;SDS011;67412;49.892;14.490;2023-04-07T06:19:27;25.10;;;11.32;;
78169;SDS011;67412;49.892;14.490;2023-04-07T06:21:53;21.10;;;9.93;;
78169;SDS011;67412;49.892;14.490;2023-04-07T06:24:18;25.58;;;10.93;;
78169;SDS011;67412;49.892;14.490;2023-04-07T06:26:47;23.30;;;10.45;;
78169;SDS011;67412;49.892;14.490;2023-04-07T06:29:13;22.38;;;9.77;;
78169;SDS011;67412;49.892;14.490;2023-04-07T06:31:39;21.90;;;8.88;;
78169;SDS011;67412;49.892;14.490;2023-04-07T06:34:04;13.02;;;5.32;;
78169;SDS011;67412;49.892;14.490;2023-04-07T06:36:30;11.43;;;4.97;;
78169;SDS011;67412;49.892;14.490;2023-04-07T06:38:55;14.07;;;5.55;;
78169;SDS011;67412;49.892;14.490;2023-04-07T06:41:21;11.43;;;4.60;;
78169;SDS011;67412;49.892;14.490;2023-04-07T06:43:48;15.15;;;6.40;;
78169;SDS011;67412;49.892;14.490;2023-04-07T06:46:15;15.90;;;5.90;;
78169;SDS011;67412;49.892;14.490;2023-04-07T06:48:41;11.68;;;4.75;;
78169;SDS011;67412;49.892;14.490;2023-04-07T06:51:06;14.07;;;5.50;;
78169;SDS011;67412;49.892;14.490;2023-04-07T06:53:32;13.13;;;5.95;;
78169;SDS011;67412;49.892;14.490;2023-04-07T06:56:07;11.98;;;5.30;;
78169;SDS011;67412;49.892;14.490;2023-04-07T06:58:34;16.17;;;6.28;;
78169;SDS011;67412;49.892;14.490;2023-04-07T07:01:00;12.60;;;6.20;;
78169;SDS011;67412;49.892;14.490;2023-04-07T07:03:26;15.93;;;5.13;;
78169;SDS011;67412;49.892;14.490;2023-04-07T07:05:53;14.57;;;6.15;;
78169;SDS011;67412;49.892;14.490;2023-04-07T07:08:20;15.32;;;5.75;;
78169;SDS011;67412;49.892;14.490;2023-04-07T07:10:46;13.10;;;5.80;;
78169;SDS011;67412;49.892;14.490;2023-04-07T07:13:11;12.60;;;5.53;;
78169;SDS011;67412;49.892;14.490;2023-04-07T07:15:36;13.00;;;6.00;;
78169;SDS011;67412;49.892;14.490;2023-04-07T07:18:02;14.73;;;5.50;;
78169;SDS011;67412;49.892;14.490;2023-04-07T07:20:27;14.80;;;5.78;;
78169;SDS011;67412;49.892;14.490;2023-04-07T07:22:52;12.00;;;5.38;;
78169;SDS011;67412;49.892;14.490;2023-04-07T07:25:18;16.75;;;5.88;;
78169;SDS011;67412;49.892;14.490;2023-04-07T07:27:43;15.23;;;6.07;;
78169;SDS011;67412;49.892;14.490;2023-04-07T07:30:09;14.75;;;5.88;;
78169;SDS011;67412;49.892;14.490;2023-04-07T07:32:34;13.52;;;5.13;;
78169;SDS011;67412;49.892;14.490;2023-04-07T07:35:00;12.00;;;5.28;;
78169;SDS011;67412;49.892;14.490;2023-04-07T07:37:25;14.88;;;6.50;;
78169;SDS011;67412;49.892;14.490;2023-04-07T07:39:51;15.02;;;5.65;;
78169;SDS011;67412;49.892;14.490;2023-04-07T07:42:17;17.23;;;5.93;;
78169;SDS011;67412;49.892;14.490;2023-04-07T07:44:42;16.35;;;5.75;;
78169;SDS011;67412;49.892;14.490;2023-04-07T07:47:08;11.75;;;4.57;;
78169;SDS011;67412;49.892;14.490;2023-04-07T07:49:33;12.18;;;5.32;;
78169;SDS011;67412;49.892;14.490;2023-04-07T07:51:59;16.90;;;6.72;;
78169;SDS011;67412;49.892;14.490;2023-04-07T07:54:24;16.52;;;5.55;;
78169;SDS011;67412;49.892;14.490;2023-04-07T07:56:50;18.15;;;6.20;;
78169;SDS011;67412;49.892;14.490;2023-04-07T07:59:16;19.17;;;5.97;;
78169;SDS011;67412;49.892;14.490;2023-04-07T08:01:41;15.32;;;5.80;;
78169;SDS011;67412;49.892;14.490;2023-04-07T08:04:06;14.90;;;6.05;;
78169;SDS011;67412;49.892;14.490;2023-04-07T08:06:32;12.70;;;5.60;;
78169;SDS011;67412;49.892;14.490;2023-04-07T08:08:58;15.57;;;6.00;;
78169;SDS011;67412;49.892;14.490;2023-04-07T08:11:23;15.60;;;5.63;;
78169;SDS011;67412;49.892;14.490;2023-04-07T08:13:48;13.43;;;5.32;;
78169;SDS011;67412;49.892;14.490;2023-04-07T08:16:14;18.42;;;6.32;;
78169;SDS011;67412;49.892;14.490;2023-04-07T08:18:39;11.00;;;4.50;;
78169;SDS011;67412;49.892;14.490;2023-04-07T08:21:05;11.60;;;5.35;;
78169;SDS011;67412;49.892;14.490;2023-04-07T08:23:30;12.32;;;4.55;;
78169;SDS011;67412;49.892;14.490;2023-04-07T08:25:56;12.57;;;4.80;;
78169;SDS011;67412;49.892;14.490;2023-04-07T08:28:22;12.23;;;4.90;;
78169;SDS011;67412;49.892;14.490;2023-04-07T08:30:49;10.18;;;4.20;;
78169;SDS011;67412;49.892;14.490;2023-04-07T08:33:15;12.85;;;5.43;;
78169;SDS011;67412;49.892;14.490;2023-04-07T08:35:40;12.15;;;5.13;;
78169;SDS011;67412;49.892;14.490;2023-04-07T08:38:05;15.18;;;4.88;;
78169;SDS011;67412;49.892;14.490;2023-04-07T08:40:33;11.65;;;4.90;;
78169;SDS011;67412;49.892;14.490;2023-04-07T08:42:58;8.60;;;3.70;;
78169;SDS011;67412;49.892;14.490;2023-04-07T08:45:25;12.00;;;4.80;;
78169;SDS011;67412;49.892;14.490;2023-04-07T08:47:52;11.63;;;4.65;;
78169;SDS011;67412;49.892;14.490;2023-04-07T08:50:20;13.50;;;4.95;;
78169;SDS011;67412;49.892;14.490;2023-04-07T08:52:51;11.45;;;5.50;;
78169;SDS011;67412;49.892;14.490;2023-04-07T08:55:18;14.10;;;5.68;;
78169;SDS011;67412;49.892;14.490;2023-04-07T08:57:44;11.15;;;4.97;;
78169;SDS011;67412;49.892;14.490;2023-04-07T09:00:10;12.50;;;5.38;;
78169;SDS011;67412;49.892;14.490;2023-04-07T09:02:38;15.63;;;5.82;;
78169;SDS011;67412;49.892;14.490;2023-04-07T09:05:05;15.52;;;5.38;;
78169;SDS011;67412;49.892;14.490;2023-04-07T09:07:32;13.95;;;5.45;;
78169;SDS011;67412;49.892;14.490;2023-04-07T09:09:59;15.90;;;5.35;;
78169;SDS011;67412;49.892;14.490;2023-04-07T09:12:28;13.98;;;5.32;;
78169;SDS011;67412;49.892;14.490;2023-04-07T09:14:55;13.27;;;6.30;;
78169;SDS011;67412;49.892;14.490;2023-04-07T09:17:20;14.55;;;5.18;;
78169;SDS011;67412;49.892;14.490;2023-04-07T09:19:46;12.60;;;5.60;;
78169;SDS011;67412;49.892;14.490;2023-04-07T09:22:12;12.23;;;4.80;;
78169;SDS011;67412;49.892;14.490;2023-04-07T09:24:39;8.93;;;3.80;;
78169;SDS011;67412;49.892;14.490;2023-04-07T09:27:15;13.70;;;5.25;;
78169;SDS011;67412;49.892;14.490;2023-04-07T09:29:43;14.88;;;5.15;;
78169;SDS011;67412;49.892;14.490;2023-04-07T09:32:09;13.50;;;5.10;;
78169;SDS011;67412;49.892;14.490;2023-04-07T09:34:37;11.68;;;4.72;;
78169;SDS011;67412;49.892;14.490;2023-04-07T09:37:05;9.52;;;3.58;;
78169;SDS011;67412;49.892;14.490;2023-04-07T09:39:31;9.68;;;3.85;;
78169;SDS011;67412;49.892;14.490;2023-04-07T09:41:57;12.93;;;4.57;;
78169;SDS011;67412;49.892;14.490;2023-04-07T09:44:22;12.95;;;5.47;;
78169;SDS011;67412;49.892;14.490;2023-04-07T09:49:17;14.40;;;4.90;;
78169;SDS011;67412;49.892;14.490;2023-04-07T09:52:00;12.77;;;4.72;;
78169;SDS011;67412;49.892;14.490;2023-04-07T09:57:02;12.82;;;5.25;;
78169;SDS011;67412;49.892;14.490;2023-04-07T09:59:29;14.50;;;5.28;;
78169;SDS011;67412;49.892;14.490;2023-04-07T10:04:21;10.75;;;4.43;;
78169;SDS011;67412;49.892;14.490;2023-04-07T10:06:48;15.70;;;5.68;;
78169;SDS011;67412;49.892;14.490;2023-04-07T10:09:14;10.98;;;4.70;;
78169;SDS011;67412;49.892;14.490;2023-04-07T10:11:41;14.00;;;5.97;;
78169;SDS011;67412;49.892;14.490;2023-04-07T10:14:10;12.73;;;5.20;;
78169;SDS011;67412;49.892;14.490;2023-04-07T10:16:37;14.27;;;5.13;;
78169;SDS011;67412;49.892;14.490;2023-04-07T10:19:02;15.00;;;5.90;;
78169;SDS011;67412;49.892;14.490;2023-04-07T10:21:30;12.68;;;5.35;;
78169;SDS011;67412;49.892;14.490;2023-04-07T10:23:58;13.68;;;4.82;;
78169;SDS011;67412;49.892;14.490;2023-04-07T10:26:34;13.48;;;4.85;;
78169;SDS011;67412;49.892;14.490;2023-04-07T10:29:03;11.25;;;5.55;;
78169;SDS011;67412;49.892;14.490;2023-04-07T10:31:33;11.45;;;5.32;;
78169;SDS011;67412;49.892;14.490;2023-04-07T10:34:00;15.38;;;5.60;;
78169;SDS011;67412;49.892;14.490;2023-04-07T10:36:26;12.40;;;5.75;;
78169;SDS011;67412;49.892;14.490;2023-04-07T10:41:33;12.05;;;5.53;;
78169;SDS011;67412;49.892;14.490;2023-04-07T10:44:03;12.60;;;5.10;;
78169;SDS011;67412;49.892;14.490;2023-04-07T10:49:12;16.77;;;5.65;;
78169;SDS011;67412;49.892;14.490;2023-04-07T10:51:38;14.45;;;5.35;;
78169;SDS011;67412;49.892;14.490;2023-04-07T10:54:14;12.70;;;5.53;;
78169;SDS011;67412;49.892;14.490;2023-04-07T10:59:26;12.85;;;5.43;;
78169;SDS011;67412;49.892;14.490;2023-04-07T11:04:37;13.05;;;5.45;;
78169;SDS011;67412;49.892;14.490;2023-04-07T11:07:05;13.63;;;4.93;;
78169;SDS011;67412;49.892;14.490;2023-04-07T11:09:31;10.55;;;4.65;;
78169;SDS011;67412;49.892;14.490;2023-04-07T11:11:56;14.23;;;5.00;;
78169;SDS011;67412;49.892;14.490;2023-04-07T11:14:28;10.18;;;4.97;;
78169;SDS011;67412;49.892;14.490;2023-04-07T11:16:55;14.95;;;5.25;;
78169;SDS011;67412;49.892;14.490;2023-04-07T11:19:21;10.40;;;4.90;;
78169;SDS011;67412;49.892;14.490;2023-04-07T11:21:47;12.00;;;5.20;;
78169;SDS011;67412;49.892;14.490;2023-04-07T11:26:57;15.20;;;6.78;;
78169;SDS011;67412;49.892;14.490;2023-04-07T11:29:32;12.95;;;5.15;;
78169;SDS011;67412;49.892;14.490;2023-04-07T11:31:58;18.48;;;6.57;;
78169;SDS011;67412;49.892;14.490;2023-04-07T11:34:28;13.02;;;5.72;;
78169;SDS011;67412;49.892;14.490;2023-04-07T11:36:57;13.82;;;5.50;;
78169;SDS011;67412;49.892;14.490;2023-04-07T11:39:56;10.55;;;4.25;;
78169;SDS011;67412;49.892;14.490;2023-04-07T11:42:35;11.45;;;4.40;;
78169;SDS011;67412;49.892;14.490;2023-04-07T11:45:02;16.83;;;6.22;;
78169;SDS011;67412;49.892;14.490;2023-04-07T11:49:59;12.98;;;5.30;;
78169;SDS011;67412;49.892;14.490;2023-04-07T11:52:25;14.10;;;5.60;;
78169;SDS011;67412;49.892;14.490;2023-04-07T11:54:51;11.90;;;4.75;;
78169;SDS011;67412;49.892;14.490;2023-04-07T11:57:27;12.77;;;4.88;;
78169;SDS011;67412;49.892;14.490;2023-04-07T12:00:09;14.38;;;5.03;;
78169;SDS011;67412;49.892;14.490;2023-04-07T12:02:36;13.07;;;5.07;;
78169;SDS011;67412;49.892;14.490;2023-04-07T12:05:02;9.60;;;4.10;;
78169;SDS011;67412;49.892;14.490;2023-04-07T12:07:28;11.43;;;4.88;;
78169;SDS011;67412;49.892;14.490;2023-04-07T12:09:54;13.82;;;5.20;;
78169;SDS011;67412;49.892;14.490;2023-04-07T12:12:26;14.48;;;4.65;;
78169;SDS011;67412;49.892;14.490;2023-04-07T12:17:21;12.90;;;4.70;;
78169;SDS011;67412;49.892;14.490;2023-04-07T12:19:50;10.95;;;4.60;;
78169;SDS011;67412;49.892;14.490;2023-04-07T12:22:17;12.10;;;4.75;;
78169;SDS011;67412;49.892;14.490;2023-04-07T12:24:42;11.30;;;4.30;;
78169;SDS011;67412;49.892;14.490;2023-04-07T12:27:07;9.77;;;4.10;;
78169;SDS011;67412;49.892;14.490;2023-04-07T12:29:34;10.65;;;3.95;;
78169;SDS011;67412;49.892;14.490;2023-04-07T12:32:00;10.80;;;4.20;;
78169;SDS011;67412;49.892;14.490;2023-04-07T12:34:25;11.13;;;4.25;;
78169;SDS011;67412;49.892;14.490;2023-04-07T12:36:51;13.23;;;4.90;;
78169;SDS011;67412;49.892;14.490;2023-04-07T12:39:16;10.95;;;3.85;;
78169;SDS011;67412;49.892;14.490;2023-04-07T12:41:42;9.23;;;4.07;;
78169;SDS011;67412;49.892;14.490;2023-04-07T12:46:35;13.60;;;4.80;;
78169;SDS011;67412;49.892;14.490;2023-04-07T12:49:00;12.13;;;4.68;;
78169;SDS011;67412;49.892;14.490;2023-04-07T12:51:25;11.13;;;4.10;;
78169;SDS011;67412;49.892;14.490;2023-04-07T12:53:51;10.45;;;4.18;;
78169;SDS011;67412;49.892;14.490;2023-04-07T12:56:18;10.68;;;3.92;;
78169;SDS011;67412;49.892;14.490;2023-04-07T12:58:43;12.30;;;4.75;;
78169;SDS011;67412;49.892;14.490;2023-04-07T13:01:09;10.68;;;4.57;;
78169;SDS011;67412;49.892;14.490;2023-04-07T13:03:34;10.35;;;4.47;;
78169;SDS011;67412;49.892;14.490;2023-04-07T13:06:00;12.27;;;4.57;;
78169;SDS011;67412;49.892;14.490;2023-04-07T13:08:28;10.30;;;4.28;;
78169;SDS011;67412;49.892;14.490;2023-04-07T13:10:54;13.68;;;5.00;;
78169;SDS011;67412;49.892;14.490;2023-04-07T13:13:20;12.70;;;4.53;;
78169;SDS011;67412;49.892;14.490;2023-04-07T13:15:45;13.60;;;4.93;;
78169;SDS011;67412;49.892;14.490;2023-04-07T13:18:11;11.63;;;4.47;;
78169;SDS011;67412;49.892;14.490;2023-04-07T13:20:36;11.77;;;4.15;;
78169;SDS011;67412;49.892;14.490;2023-04-07T13:23:02;12.07;;;4.22;;
78169;SDS011;67412;49.892;14.490;2023-04-07T13:25:27;10.48;;;3.30;;
78169;SDS011;67412;49.892;14.490;2023-04-07T13:27:52;11.75;;;4.25;;
78169;SDS011;67412;49.892;14.490;2023-04-07T13:30:18;9.60;;;3.55;;
78169;SDS011;67412;49.892;14.490;2023-04-07T13:32:43;10.55;;;3.88;;
78169;SDS011;67412;49.892;14.490;2023-04-07T13:35:09;13.65;;;4.97;;
78169;SDS011;67412;49.892;14.490;2023-04-07T13:37:34;13.43;;;4.43;;
78169;SDS011;67412;49.892;14.490;2023-04-07T13:40:00;9.32;;;4.00;;
78169;SDS011;67412;49.892;14.490;2023-04-07T13:42:25;11.75;;;4.30;;
78169;SDS011;67412;49.892;14.490;2023-04-07T13:44:51;8.93;;;3.83;;
78169;SDS011;67412;49.892;14.490;2023-04-07T13:47:18;11.40;;;5.03;;
78169;SDS011;67412;49.892;14.490;2023-04-07T13:49:47;11.13;;;4.22;;
78169;SDS011;67412;49.892;14.490;2023-04-07T13:52:12;10.38;;;3.78;;
78169;SDS011;67412;49.892;14.490;2023-04-07T13:54:38;13.18;;;4.35;;
78169;SDS011;67412;49.892;14.490;2023-04-07T13:57:04;12.25;;;4.68;;
78169;SDS011;67412;49.892;14.490;2023-04-07T13:59:30;12.07;;;4.68;;
78169;SDS011;67412;49.892;14.490;2023-04-07T14:01:55;12.30;;;4.78;;
78169;SDS011;67412;49.892;14.490;2023-04-07T14:04:21;12.15;;;4.25;;
78169;SDS011;67412;49.892;14.490;2023-04-07T14:06:46;13.18;;;5.22;;
78169;SDS011;67412;49.892;14.490;2023-04-07T14:09:12;18.33;;;6.20;;
78169;SDS011;67412;49.892;14.490;2023-04-07T14:11:37;14.48;;;5.03;;
78169;SDS011;67412;49.892;14.490;2023-04-07T14:14:03;13.52;;;4.85;;
78169;SDS011;67412;49.892;14.490;2023-04-07T14:16:28;15.52;;;5.45;;
78169;SDS011;67412;49.892;14.490;2023-04-07T14:18:54;13.65;;;4.68;;
78169;SDS011;67412;49.892;14.490;2023-04-07T14:21:20;11.63;;;4.45;;
78169;SDS011;67412;49.892;14.490;2023-04-07T14:23:45;14.45;;;5.32;;
78169;SDS011;67412;49.892;14.490;2023-04-07T14:26:11;11.82;;;4.88;;
78169;SDS011;67412;49.892;14.490;2023-04-07T14:28:37;11.93;;;4.93;;
78169;SDS011;67412;49.892;14.490;2023-04-07T14:31:03;13.82;;;5.10;;
78169;SDS011;67412;49.892;14.490;2023-04-07T14:33:28;12.20;;;5.20;;
78169;SDS011;67412;49.892;14.490;2023-04-07T14:35:54;14.35;;;5.53;;
78169;SDS011;67412;49.892;14.490;2023-04-07T14:38:19;12.05;;;4.97;;
78169;SDS011;67412;49.892;14.490;2023-04-07T14:40:50;13.50;;;4.90;;
78169;SDS011;67412;49.892;14.490;2023-04-07T14:43:16;14.07;;;4.90;;
78169;SDS011;67412;49.892;14.490;2023-04-07T14:45:42;11.05;;;4.60;;
78169;SDS011;67412;49.892;14.490;2023-04-07T14:48:07;11.65;;;4.68;;
78169;SDS011;67412;49.892;14.490;2023-04-07T14:50:33;14.15;;;5.53;;
78169;SDS011;67412;49.892;14.490;2023-04-07T14:52:59;10.70;;;4.05;;
78169;SDS011;67412;49.892;14.490;2023-04-07T14:55:25;12.05;;;4.28;;
78169;SDS011;67412;49.892;14.490;2023-04-07T14:57:50;10.40;;;3.70;;